Time;durP1;ratioP1;P1;durP2;ratioP2;P2;SDS_P1;SDS_P2;PMS_P1;PMS_P2;Temp;Humidity;BMP_temperature;BMP_pressure;BME280_temperature;BME280_humidity;BME280_pressure;Samples;Min_cycle;Max_cycle;Signal;HPM_P1;HPM_P2
2024/02/01 00:00:15;;;;;;;36.55;12.02;;;24.80;69.40;;;;;;5062311;28;20077;-58
2024/02/01 00:02:41;;;;;;;34.17;17.33;;;24.90;68.60;;;;;;5060430;28;20155;-58
2024/02/01 00:05:08;;;;;;;23.42;10.70;;;24.80;66.40;;;;;;5061811;28;20108;-58
2024/02/01 00:07:36;;;;;;;28.35;9.63;;;24.70;66.60;;;;;;5062300;28;20085;-58
2024/02/01 00:10:02;;;;;;;45.22;9.90;;;24.50;66.00;;;;;;5060611;28;20200;-62
2024/02/01 00:12:29;;;;;;;35.75;11.13;;;24.50;67.00;;;;;;5063660;28;20065;-62
2024/02/01 00:14:55;;;;;;;28.40;10.57;;;24.20;67.40;;;;;;5061743;28;20076;-58
2024/02/01 00:17:22;;;;;;;41.17;10.32;;;24.40;68.00;;;;;;5059671;28;20467;-56
2024/02/01 00:19:48;;;;;;;25.73;9.85;;;24.60;68.20;;;;;;5060018;28;20160;-59
2024/02/01 00:22:15;;;;;;;34.75;9.95;;;24.60;67.40;;;;;;5059943;28;20135;-61
2024/02/01 00:24:41;;;;;;;27.17;9.30;;;24.50;67.90;;;;;;5059433;28;20488;-58
2024/02/01 00:27:08;;;;;;;27.25;9.93;;;24.10;69.10;;;;;;5062315;28;20078;-57
2024/02/01 00:29:34;;;;;;;27.70;11.13;;;23.80;71.10;;;;;;5061684;28;20074;-58
2024/02/01 00:32:01;;;;;;;30.55;12.80;;;23.70;72.40;;;;;;5061204;28;20101;-59
2024/02/01 00:34:29;;;;;;;30.52;9.68;;;23.40;74.00;;;;;;5060181;28;20081;-60
2024/02/01 00:36:55;;;;;;;36.00;8.18;;;23.30;73.70;;;;;;5062658;28;20088;-57
2024/02/01 00:39:22;;;;;;;25.85;7.40;;;23.20;72.10;;;;;;5061223;28;20165;-58
2024/02/01 00:41:48;;;;;;;27.10;7.07;;;23.10;72.00;;;;;;5060367;28;20081;-59
2024/02/01 00:44:14;;;;;;;27.67;17.70;;;23.00;72.30;;;;;;5059566;28;20117;-60
2024/02/01 00:46:41;;;;;;;26.30;7.57;;;22.90;72.70;;;;;;5061550;28;20081;-58
2024/02/01 00:49:07;;;;;;;32.50;12.27;;;22.80;73.30;;;;;;5059276;28;20077;-59
2024/02/01 00:51:34;;;;;;;61.45;29.00;;;22.70;76.40;;;;;;5062048;28;20195;-58
2024/02/01 00:54:00;;;;;;;46.05;14.43;;;22.80;78.50;;;;;;5063356;28;20127;-59
2024/02/01 00:56:27;;;;;;;35.22;13.85;;;22.80;79.50;;;;;;5058808;28;20077;-60
2024/02/01 00:58:53;;;;;;;38.40;12.90;;;22.50;80.60;;;;;;5062905;28;20080;-58
2024/02/01 01:01:20;;;;;;;33.03;13.93;;;22.30;81.80;;;;;;5066296;28;20104;-58
2024/02/01 01:03:46;;;;;;;37.72;14.52;;;22.10;83.20;;;;;;5065183;28;20091;-59
2024/02/01 01:06:13;;;;;;;29.63;13.32;;;21.90;84.10;;;;;;5066162;28;20101;-59
2024/02/01 01:08:39;;;;;;;28.83;12.43;;;21.70;84.70;;;;;;5064780;28;20155;-60
2024/02/01 01:11:06;;;;;;;33.17;13.65;;;21.60;85.50;;;;;;5063380;28;20105;-59
2024/02/01 01:13:32;;;;;;;31.98;14.07;;;21.40;86.20;;;;;;5063402;28;20069;-58
2024/02/01 01:15:58;;;;;;;48.40;14.70;;;21.30;87.00;;;;;;5063473;28;20080;-59
2024/02/01 01:18:25;;;;;;;40.55;13.95;;;21.00;87.40;;;;;;5064643;28;20076;-60
2024/02/01 01:20:51;;;;;;;45.97;15.48;;;21.00;87.80;;;;;;5063583;28;20077;-58
2024/02/01 01:23:18;;;;;;;46.15;14.90;;;20.80;88.00;;;;;;5063130;28;20496;-62
2024/02/01 01:25:44;;;;;;;48.28;15.73;;;20.70;88.20;;;;;;5065909;28;20837;-59
2024/02/01 01:28:11;;;;;;;41.58;14.98;;;20.60;88.70;;;;;;5064316;28;20077;-59
2024/02/01 01:30:37;;;;;;;46.60;14.32;;;20.50;90.00;;;;;;5063332;28;20600;-59
2024/02/01 01:33:04;;;;;;;33.72;12.32;;;20.30;90.40;;;;;;5063897;28;20127;-59
2024/02/01 01:35:30;;;;;;;37.28;10.70;;;20.30;90.70;;;;;;5066714;28;20118;-59
2024/02/01 01:37:57;;;;;;;39.78;10.95;;;20.20;90.90;;;;;;5067977;28;20131;-58
2024/02/01 01:40:24;;;;;;;38.08;10.48;;;20.10;91.10;;;;;;5062315;28;20069;-58
2024/02/01 01:42:51;;;;;;;38.85;10.98;;;20.00;91.30;;;;;;5063917;28;20124;-57
2024/02/01 01:45:18;;;;;;;46.05;11.38;;;20.00;91.60;;;;;;5061222;28;20187;-59
2024/02/01 01:47:44;;;;;;;36.47;9.05;;;19.90;91.90;;;;;;5061091;28;20092;-60
2024/02/01 01:50:11;;;;;;;25.25;8.35;;;19.70;92.00;;;;;;5064471;28;20092;-59
2024/02/01 01:52:40;;;;;;;29.17;9.30;;;19.60;92.20;;;;;;5063399;28;20186;-58
2024/02/01 01:55:08;;;;;;;33.97;9.48;;;19.60;92.50;;;;;;5065656;28;20165;-58
2024/02/01 01:57:35;;;;;;;35.00;8.88;;;19.50;92.50;;;;;;5060523;28;20081;-58
2024/02/01 02:00:04;;;;;;;46.20;8.45;;;19.40;92.80;;;;;;5063237;28;20478;-59
2024/02/01 02:02:32;;;;;;;60.83;8.60;;;19.30;92.90;;;;;;5066563;28;20081;-59
2024/02/01 02:05:00;;;;;;;48.65;8.27;;;19.20;93.30;;;;;;5062253;28;20101;-59
2024/02/01 02:07:28;;;;;;;35.63;11.25;;;19.10;93.60;;;;;;5063849;28;20073;-58
2024/02/01 02:10:00;;;;;;;53.78;10.73;;;19.10;93.70;;;;;;5061743;28;20073;-60
2024/02/01 02:12:27;;;;;;;43.45;10.73;;;19.00;94.00;;;;;;5062131;28;20077;-57
2024/02/01 02:15:01;;;;;;;49.08;12.65;;;18.90;94.20;;;;;;5061043;28;20093;-59
2024/02/01 02:17:27;;;;;;;55.72;15.07;;;18.90;94.40;;;;;;5060205;28;20155;-58
2024/02/01 02:19:55;;;;;;;51.63;14.43;;;18.80;94.50;;;;;;5064176;28;20164;-58
2024/02/01 02:22:22;;;;;;;71.25;15.20;;;18.70;94.80;;;;;;5060075;28;20077;-59
2024/02/01 02:24:49;;;;;;;55.00;15.90;;;18.70;95.00;;;;;;5060378;28;20147;-58
2024/02/01 02:27:16;;;;;;;65.63;15.25;;;18.70;95.30;;;;;;5065334;28;20081;-58
2024/02/01 02:29:43;;;;;;;57.83;13.70;;;18.60;95.60;;;;;;5062826;28;20076;-58
2024/02/01 02:32:10;;;;;;;43.50;11.75;;;18.50;95.90;;;;;;5060083;28;20088;-59
2024/02/01 02:34:36;;;;;;;62.20;12.45;;;18.50;96.10;;;;;;5063469;28;20083;-57
2024/02/01 02:37:02;;;;;;;60.75;12.18;;;18.40;96.20;;;;;;5062197;28;20219;-58
2024/02/01 02:39:29;;;;;;;57.65;12.63;;;18.30;96.50;;;;;;5060050;28;20537;-58
2024/02/01 02:41:55;;;;;;;49.13;12.02;;;18.30;96.80;;;;;;5061260;28;20146;-59
2024/02/01 02:44:22;;;;;;;64.55;12.13;;;18.30;97.00;;;;;;5063376;28;20139;-58
2024/02/01 02:46:48;;;;;;;68.28;13.63;;;18.20;97.20;;;;;;5065038;28;20081;-59
2024/02/01 02:49:15;;;;;;;71.78;14.40;;;18.20;97.30;;;;;;5065676;28;20084;-58
2024/02/01 02:51:41;;;;;;;50.08;13.82;;;18.20;97.30;;;;;;5061864;28;20073;-58
2024/02/01 02:54:10;;;;;;;37.97;13.90;;;18.10;97.30;;;;;;5063965;28;20101;-61
2024/02/01 02:56:37;;;;;;;55.72;15.10;;;18.10;97.30;;;;;;5058734;28;20204;-58
2024/02/01 02:59:03;;;;;;;58.90;15.45;;;18.00;97.30;;;;;;5062634;28;20077;-59
2024/02/01 03:01:30;;;;;;;52.42;15.85;;;18.00;97.40;;;;;;5066555;28;20080;-56
2024/02/01 03:03:56;;;;;;;49.22;17.83;;;18.00;97.50;;;;;;5059885;28;20104;-55
2024/02/01 03:06:23;;;;;;;75.68;17.35;;;17.90;97.80;;;;;;5061742;28;20100;-54
2024/02/01 03:08:49;;;;;;;48.33;15.60;;;17.90;98.10;;;;;;5058139;28;20069;-62
2024/02/01 03:11:16;;;;;;;47.55;15.65;;;17.90;98.20;;;;;;5062510;28;20087;-57
2024/02/01 03:13:46;;;;;;;57.40;15.43;;;17.90;98.30;;;;;;5060171;28;20228;-57
2024/02/01 03:16:20;;;;;;;70.20;20.35;;;17.80;98.60;;;;;;5061500;28;20081;-60
2024/02/01 03:18:49;;;;;;;58.35;20.77;;;17.80;98.70;;;;;;5061449;28;20080;-59
2024/02/01 03:21:16;;;;;;;64.03;20.80;;;17.80;98.80;;;;;;5057449;28;20216;-58
2024/02/01 03:23:47;;;;;;;61.03;19.27;;;17.70;98.90;;;;;;5059617;28;20081;-59
2024/02/01 03:26:14;;;;;;;55.67;18.17;;;17.70;99.10;;;;;;5061659;28;20582;-60
2024/02/01 03:28:44;;;;;;;59.80;17.30;;;17.70;99.30;;;;;;5063413;28;20109;-58
2024/02/01 03:31:14;;;;;;;62.17;14.95;;;17.60;99.60;;;;;;5061966;28;20555;-58
2024/02/01 03:33:44;;;;;;;46.78;14.40;;;17.60;99.50;;;;;;5062564;28;20097;-58
2024/02/01 03:36:11;;;;;;;49.67;15.15;;;17.60;99.50;;;;;;5063198;28;20069;-55
2024/02/01 03:38:40;;;;;;;57.50;16.08;;;17.50;99.80;;;;;;5060231;28;20073;-58
2024/02/01 03:41:07;;;;;;;56.08;16.85;;;17.50;99.90;;;;;;5060677;28;20077;-60
2024/02/01 03:43:33;;;;;;;61.92;19.10;;;17.50;99.90;;;;;;5063490;28;20139;-58
2024/02/01 03:46:00;;;;;;;59.13;22.25;;;17.40;99.90;;;;;;5062077;28;20158;-59
2024/02/01 03:48:26;;;;;;;68.07;23.45;;;17.40;99.90;;;;;;5062657;28;20115;-56
2024/02/01 03:50:53;;;;;;;80.75;30.30;;;17.30;99.90;;;;;;5060580;28;20081;-55
2024/02/01 03:53:19;;;;;;;65.80;31.08;;;17.20;99.90;;;;;;5063162;28;20126;-58
2024/02/01 03:55:52;;;;;;;78.07;31.65;;;17.10;99.90;;;;;;5059036;28;20088;-55
2024/02/01 03:58:18;;;;;;;89.65;27.38;;;17.00;99.90;;;;;;5058881;28;20084;-58
2024/02/01 04:00:48;;;;;;;68.00;28.35;;;17.00;99.90;;;;;;5061710;28;20429;-61
2024/02/01 04:03:15;;;;;;;69.68;26.20;;;17.00;99.90;;;;;;5058425;28;20556;-54
2024/02/01 04:05:43;;;;;;;68.97;26.63;;;16.90;99.90;;;;;;5060488;28;20161;-54
2024/02/01 04:08:12;;;;;;;87.93;30.90;;;16.90;99.90;;;;;;5059373;28;20084;-60
2024/02/01 04:10:39;;;;;;;104.30;34.65;;;16.80;99.90;;;;;;5062479;28;20120;-57
2024/02/01 04:13:07;;;;;;;89.00;32.38;;;16.70;99.90;;;;;;5061596;28;20073;-56
2024/02/01 04:15:34;;;;;;;89.60;32.85;;;16.70;99.90;;;;;;5060441;28;20096;-58
2024/02/01 04:18:04;;;;;;;84.57;30.90;;;16.70;99.90;;;;;;5062947;28;20085;-57
2024/02/01 04:20:31;;;;;;;97.32;27.75;;;16.60;99.90;;;;;;5061276;28;20242;-57
2024/02/01 04:22:58;;;;;;;86.20;29.33;;;16.50;99.90;;;;;;5060578;28;20593;-55
2024/02/01 04:25:25;;;;;;;95.38;28.65;;;16.50;99.90;;;;;;5058739;28;20104;-57
2024/02/01 04:27:52;;;;;;;80.55;30.20;;;16.50;99.90;;;;;;5059135;28;21376;-57
2024/02/01 04:30:20;;;;;;;85.80;34.75;;;16.40;99.90;;;;;;5061758;28;20119;-57
2024/02/01 04:32:47;;;;;;;88.47;37.40;;;16.40;99.90;;;;;;5058299;28;20556;-58
2024/02/01 04:35:15;;;;;;;115.97;38.05;;;16.40;99.90;;;;;;5060616;28;20206;-58
2024/02/01 04:37:45;;;;;;;96.20;36.50;;;16.50;99.90;;;;;;5062188;28;20085;-57
2024/02/01 04:40:12;;;;;;;91.18;35.20;;;16.40;99.90;;;;;;5064373;28;20126;-56
2024/02/01 04:42:40;;;;;;;103.88;35.22;;;16.40;99.90;;;;;;5064195;28;20136;-57
2024/02/01 04:45:09;;;;;;;97.88;35.42;;;16.30;99.90;;;;;;5066460;28;20440;-58
2024/02/01 04:47:36;;;;;;;97.15;37.60;;;16.30;99.90;;;;;;5065197;28;20088;-60
2024/02/01 04:50:04;;;;;;;107.97;33.33;;;16.20;99.90;;;;;;5065463;28;20524;-57
2024/02/01 04:52:31;;;;;;;109.47;35.08;;;16.20;99.90;;;;;;5063806;28;20451;-57
2024/02/01 04:55:04;;;;;;;98.03;34.63;;;16.10;99.90;;;;;;5063851;28;20073;-56
2024/02/01 04:57:30;;;;;;;110.03;34.95;;;16.10;99.90;;;;;;5065988;28;20130;-54
2024/02/01 04:59:57;;;;;;;101.43;35.78;;;16.00;99.90;;;;;;5066475;28;20152;-55
2024/02/01 05:02:23;;;;;;;107.82;34.10;;;15.90;99.90;;;;;;5064009;28;20069;-52
2024/02/01 05:04:49;;;;;;;82.03;30.05;;;15.90;99.90;;;;;;5064221;28;20112;-55
2024/02/01 05:07:16;;;;;;;94.97;30.20;;;15.90;99.90;;;;;;5063504;28;20089;-50
2024/02/01 05:09:43;;;;;;;78.88;31.20;;;15.90;99.90;;;;;;5065703;28;20122;-55
2024/02/01 05:12:10;;;;;;;96.05;32.10;;;15.80;99.90;;;;;;5063438;28;20081;-54
2024/02/01 05:14:37;;;;;;;92.93;34.50;;;15.80;99.90;;;;;;5067016;28;20109;-58
2024/02/01 05:17:04;;;;;;;113.43;37.88;;;15.70;99.90;;;;;;5065886;28;20154;-56
2024/02/01 05:19:30;;;;;;;107.00;38.03;;;15.70;99.90;;;;;;5063514;28;20141;-58
2024/02/01 05:21:57;;;;;;;90.35;32.65;;;15.70;99.90;;;;;;5064046;28;20596;-55
2024/02/01 05:24:28;;;;;;;106.90;29.85;;;15.60;99.90;;;;;;5064921;28;20113;-55
2024/02/01 05:26:54;;;;;;;89.38;29.08;;;15.50;99.90;;;;;;5062108;28;20482;-55
2024/02/01 05:29:22;;;;;;;82.68;27.67;;;15.50;99.90;;;;;;5064907;28;20081;-57
2024/02/01 05:31:53;;;;;;;82.55;27.48;;;15.50;99.90;;;;;;5065880;28;20421;-55
2024/02/01 05:34:21;;;;;;;104.07;27.35;;;15.50;99.90;;;;;;5062621;28;20077;-57
2024/02/01 05:36:50;;;;;;;89.93;27.80;;;15.40;99.90;;;;;;5065243;28;20514;-56
2024/02/01 05:39:30;;;;;;;97.97;27.48;;;15.30;99.90;;;;;;5064476;28;20160;-52
2024/02/01 05:42:01;;;;;;;105.38;28.27;;;15.30;99.90;;;;;;5064069;28;20069;-52
2024/02/01 05:44:28;;;;;;;100.28;27.75;;;15.30;99.90;;;;;;5063393;28;20113;-53
2024/02/01 05:46:56;;;;;;;108.75;28.10;;;15.30;99.90;;;;;;5061178;28;20073;-59
2024/02/01 05:49:31;;;;;;;99.68;27.67;;;15.30;99.90;;;;;;5063571;28;20088;-57
2024/02/01 05:52:04;;;;;;;104.60;28.52;;;15.20;99.90;;;;;;5051073;28;20704;-57
2024/02/01 05:54:34;;;;;;;106.35;30.17;;;15.20;99.90;;;;;;5064614;28;20540;-50
2024/02/01 05:57:00;;;;;;;112.85;31.65;;;15.20;99.90;;;;;;5063209;28;20176;-55
2024/02/01 05:59:27;;;;;;;114.75;32.67;;;15.10;99.90;;;;;;5064959;28;20529;-52
2024/02/01 06:01:53;;;;;;;121.75;34.42;;;15.10;99.90;;;;;;5063769;28;20074;-52
2024/02/01 06:04:20;;;;;;;121.55;36.17;;;15.10;99.90;;;;;;5064740;28;20077;-52
2024/02/01 06:06:48;;;;;;;149.90;40.83;;;15.00;99.90;;;;;;5064176;28;20083;-51
2024/02/01 06:09:15;;;;;;;145.27;41.60;;;14.90;99.90;;;;;;5063604;28;20074;-51
2024/02/01 06:11:44;;;;;;;129.93;43.28;;;14.90;99.90;;;;;;5061955;28;20073;-49
2024/02/01 06:14:14;;;;;;;161.95;42.88;;;14.90;99.90;;;;;;5060479;28;20127;-52
2024/02/01 06:16:42;;;;;;;156.27;44.55;;;15.00;99.90;;;;;;5061862;28;20105;-54
2024/02/01 06:19:09;;;;;;;142.13;44.80;;;14.90;99.90;;;;;;5065844;28;20077;-51
2024/02/01 06:21:36;;;;;;;167.00;48.00;;;14.80;99.90;;;;;;5064394;28;20494;-53
2024/02/01 06:24:04;;;;;;;152.98;44.58;;;14.90;99.90;;;;;;5062778;28;20165;-54
2024/02/01 06:26:30;;;;;;;153.90;44.85;;;14.80;99.90;;;;;;5066199;28;20100;-53
2024/02/01 06:29:00;;;;;;;151.90;41.13;;;14.80;99.90;;;;;;5063030;28;20732;-53
2024/02/01 06:31:27;;;;;;;156.38;41.30;;;14.70;99.90;;;;;;5063463;28;20092;-51
2024/02/01 06:33:54;;;;;;;118.45;37.83;;;14.70;99.90;;;;;;5060323;28;20081;-51
2024/02/01 06:36:23;;;;;;;113.72;40.17;;;14.70;99.90;;;;;;5062955;28;20077;-54
2024/02/01 06:41:38;;;;;;;101.88;34.72;;;14.70;99.90;;;;;;5064480;28;20077;-55
2024/02/01 06:44:09;;;;;;;86.95;31.75;;;14.70;99.90;;;;;;5062022;28;20609;-51
2024/02/01 06:47:13;;;;;;;79.18;29.23;;;14.70;99.90;;;;;;5062946;28;20487;-50
2024/02/01 06:52:14;;;;;;;69.82;27.08;;;14.70;99.90;;;;;;5060137;28;20086;-53
2024/02/01 06:55:06;;;;;;;72.05;27.98;;;14.70;99.90;;;;;;5061009;28;20084;-54
2024/02/01 06:57:48;;;;;;;57.25;24.60;;;14.60;99.90;;;;;;5063146;28;20173;-55
2024/02/01 07:03:57;;;;;;;71.50;27.13;;;14.60;99.90;;;;;;5065104;28;20529;-54
2024/02/01 07:06:06;;;;;;;69.70;27.70;;;14.60;99.90;;;;;;5062288;28;20149;-52
2024/02/01 07:16:43;;;;;;;57.10;23.58;;;14.40;99.90;;;;;;5061165;28;20077;-54
2024/02/01 07:19:13;;;;;;;43.25;21.35;;;14.40;99.90;;;;;;5060455;28;20085;-52
2024/02/01 07:25:33;;;;;;;47.63;21.95;;;14.40;99.90;;;;;;5063146;28;20079;-52
2024/02/01 07:57:55;;;;;;;31.63;17.08;;;14.00;99.90;;;;;;5060909;28;20448;-52
2024/02/01 08:00:28;;;;;;;35.40;17.63;;;14.10;99.90;;;;;;5060342;28;20085;-50
2024/02/01 08:08:25;;;;;;;36.53;19.10;;;13.90;99.90;;;;;;5060644;28;20122;-53
2024/02/01 08:10:57;;;;;;;39.92;20.45;;;13.90;99.90;;;;;;5058330;28;20160;-50
2024/02/01 08:13:24;;;;;;;44.38;23.02;;;13.80;99.90;;;;;;5055790;28;20172;-53
2024/02/01 08:15:55;;;;;;;60.00;23.70;;;13.80;99.90;;;;;;5059541;28;20282;-50
2024/02/01 08:18:24;;;;;;;55.05;23.00;;;13.80;99.90;;;;;;5063893;28;20745;-51
2024/02/01 08:20:50;;;;;;;55.67;23.02;;;13.80;99.90;;;;;;5064097;28;20742;-52
2024/02/01 08:23:20;;;;;;;48.80;23.23;;;13.70;99.90;;;;;;5059021;28;20074;-52
2024/02/01 08:25:48;;;;;;;47.03;22.13;;;13.70;99.90;;;;;;5063033;28;20568;-50
2024/02/01 08:28:15;;;;;;;47.38;22.70;;;13.60;99.90;;;;;;5058837;28;20548;-55
2024/02/01 08:30:46;;;;;;;55.22;23.33;;;13.70;99.90;;;;;;5061906;28;20583;-51
2024/02/01 08:33:15;;;;;;;47.95;23.80;;;13.70;99.90;;;;;;5059236;28;20544;-53
2024/02/01 08:35:43;;;;;;;46.70;23.13;;;13.60;99.90;;;;;;5061288;28;20097;-55
2024/02/01 08:38:10;;;;;;;47.20;23.88;;;13.50;99.90;;;;;;5064171;28;20088;-52
2024/02/01 08:40:43;;;;;;;44.13;23.60;;;13.50;99.90;;;;;;5060844;28;20083;-51
2024/02/01 08:43:12;;;;;;;44.78;24.45;;;13.40;99.90;;;;;;5059234;28;21623;-50
2024/02/01 08:45:40;;;;;;;43.72;22.70;;;13.40;99.90;;;;;;5059837;28;20116;-52
2024/02/01 08:48:11;;;;;;;39.25;21.73;;;13.50;99.90;;;;;;5061576;28;20108;-52
2024/02/01 08:50:46;;;;;;;46.13;22.27;;;13.40;99.90;;;;;;5060448;28;20112;-52
2024/02/01 08:53:13;;;;;;;49.45;22.27;;;13.40;99.90;;;;;;5059620;28;20081;-54
2024/02/01 08:55:41;;;;;;;43.53;21.08;;;13.40;99.90;;;;;;5062437;28;21323;-50
2024/02/01 08:58:08;;;;;;;41.00;21.20;;;13.30;99.90;;;;;;5062464;28;20471;-52
2024/02/01 09:00:39;;;;;;;39.83;20.80;;;13.30;99.90;;;;;;5062315;28;21534;-50
2024/02/01 09:03:10;;;;;;;43.28;20.73;;;13.20;99.90;;;;;;5059996;28;20159;-50
2024/02/01 09:05:39;;;;;;;36.75;20.35;;;13.20;99.90;;;;;;5063369;28;20104;-51
2024/02/01 09:08:15;;;;;;;36.38;19.65;;;13.20;99.90;;;;;;5062191;28;20077;-49
2024/02/01 09:10:57;;;;;;;40.75;19.83;;;13.20;99.90;;;;;;5057402;28;20520;-50
2024/02/01 09:13:25;;;;;;;46.33;20.30;;;13.20;99.90;;;;;;5061557;28;20188;-53
2024/02/01 09:15:53;;;;;;;37.78;18.77;;;13.10;99.90;;;;;;5060896;28;20081;-56
2024/02/01 09:18:19;;;;;;;43.22;20.25;;;13.10;99.90;;;;;;5062510;28;20070;-51
2024/02/01 09:20:47;;;;;;;35.47;19.27;;;13.10;99.90;;;;;;5060142;28;20107;-49
2024/02/01 09:23:14;;;;;;;46.63;19.08;;;13.10;99.90;;;;;;5063050;28;20105;-50
2024/02/01 09:25:41;;;;;;;37.03;18.73;;;13.10;99.90;;;;;;5065386;28;20147;-51
2024/02/01 09:28:13;;;;;;;41.78;18.80;;;13.10;99.90;;;;;;5062615;28;20074;-53
2024/02/01 09:30:51;;;;;;;43.05;20.05;;;13.10;99.90;;;;;;5066844;28;20554;-52
2024/02/01 09:33:27;;;;;;;48.42;19.05;;;13.10;99.90;;;;;;5067622;28;20548;-56
2024/02/01 09:35:56;;;;;;;40.55;18.63;;;13.10;99.90;;;;;;5060988;28;20526;-54
2024/02/01 09:38:23;;;;;;;36.15;19.33;;;13.10;99.90;;;;;;5065221;28;20084;-51
2024/02/01 09:40:50;;;;;;;36.60;19.70;;;13.00;99.90;;;;;;5064436;28;20092;-49
2024/02/01 09:43:20;;;;;;;38.40;19.60;;;13.10;99.90;;;;;;5063158;28;20192;-50
2024/02/01 09:46:02;;;;;;;41.92;20.27;;;13.10;99.90;;;;;;5065099;28;20158;-51
2024/02/01 09:48:29;;;;;;;46.03;19.73;;;13.00;99.90;;;;;;5061109;28;20578;-51
2024/02/01 09:50:56;;;;;;;35.85;20.02;;;13.00;99.90;;;;;;5067368;28;20420;-54
2024/02/01 09:53:25;;;;;;;39.47;19.40;;;13.00;99.90;;;;;;5063277;28;20777;-51
2024/02/01 09:55:58;;;;;;;39.50;19.92;;;12.90;99.90;;;;;;5062480;28;20479;-50
2024/02/01 09:58:28;;;;;;;41.33;20.23;;;12.90;99.90;;;;;;5064094;28;20586;-49
2024/02/01 10:00:55;;;;;;;37.85;19.17;;;12.90;99.90;;;;;;5060469;28;20433;-56
2024/02/01 10:03:27;;;;;;;46.70;20.10;;;12.80;99.90;;;;;;5063210;28;20069;-57
2024/02/01 10:05:56;;;;;;;41.95;19.95;;;12.80;99.90;;;;;;5065398;28;20195;-48
2024/02/01 10:08:25;;;;;;;39.55;20.02;;;12.80;99.90;;;;;;5063616;28;20081;-55
2024/02/01 10:10:52;;;;;;;41.13;20.60;;;12.70;99.90;;;;;;5061901;28;20076;-54
2024/02/01 10:13:20;;;;;;;37.22;19.35;;;12.60;99.90;;;;;;5064085;28;20107;-48
2024/02/01 10:15:47;;;;;;;31.83;19.13;;;12.60;99.90;;;;;;5061252;28;20088;-48
2024/02/01 10:18:21;;;;;;;37.08;19.58;;;12.60;99.90;;;;;;5067572;28;21548;-51
2024/02/01 10:20:50;;;;;;;42.25;20.70;;;12.60;99.90;;;;;;5061318;28;20528;-51
2024/02/01 10:23:19;;;;;;;38.38;20.33;;;12.60;99.90;;;;;;5061704;28;20082;-61
2024/02/01 10:25:50;;;;;;;34.72;18.52;;;12.50;99.90;;;;;;5062312;28;20097;-65
2024/02/01 10:28:18;;;;;;;39.17;19.08;;;12.70;99.90;;;;;;5061959;28;20468;-64
2024/02/01 10:30:46;;;;;;;45.22;20.52;;;12.90;99.90;;;;;;5060431;28;20168;-63
2024/02/01 10:33:15;;;;;;;35.38;18.95;;;12.80;99.90;;;;;;5062932;28;20077;-63
2024/02/01 10:35:48;;;;;;;37.58;18.83;;;13.00;99.90;;;;;;5061913;28;20162;-62
2024/02/01 10:38:26;;;;;;;37.88;18.30;;;12.90;99.90;;;;;;5063359;28;20571;-62
2024/02/01 10:41:11;;;;;;;36.53;18.45;;;13.00;99.90;;;;;;5063481;28;20084;-63
2024/02/01 10:43:44;;;;;;;31.15;17.55;;;12.80;99.90;;;;;;5063375;28;20647;-62
2024/02/01 10:46:16;;;;;;;33.60;17.38;;;12.90;99.90;;;;;;5058078;28;20109;-62
2024/02/01 10:49:21;;;;;;;38.13;17.40;;;13.10;99.90;;;;;;5063757;28;20124;-63
2024/02/01 10:51:55;;;;;;;46.70;19.40;;;13.20;99.90;;;;;;4999572;28;20104;-64
2024/02/01 10:54:22;;;;;;;37.00;19.13;;;13.00;99.90;;;;;;4998817;28;20561;-64
2024/02/01 10:56:49;;;;;;;37.30;17.85;;;12.80;99.90;;;;;;5035506;28;20096;-62
2024/02/01 10:59:17;;;;;;;33.10;18.65;;;12.90;99.90;;;;;;5063469;28;20425;-64
2024/02/01 11:01:45;;;;;;;36.03;18.60;;;12.80;99.90;;;;;;5060777;28;20123;-63
2024/02/01 11:04:14;;;;;;;31.40;17.60;;;12.70;99.90;;;;;;5059637;28;20873;-62
2024/02/01 11:06:48;;;;;;;36.13;19.63;;;12.70;99.90;;;;;;5060384;28;20154;-64
2024/02/01 11:09:18;;;;;;;34.13;17.73;;;12.60;99.90;;;;;;5061408;28;20073;-62
2024/02/01 11:11:54;;;;;;;35.40;18.70;;;12.70;99.90;;;;;;5062717;28;20429;-63
2024/02/01 11:14:22;;;;;;;38.53;18.65;;;12.70;99.90;;;;;;5061844;28;20073;-63
2024/02/01 11:16:52;;;;;;;36.10;17.88;;;12.60;99.90;;;;;;5057377;28;20088;-63
2024/02/01 11:19:25;;;;;;;38.33;18.00;;;12.60;99.90;;;;;;5063833;28;20076;-62
2024/02/01 11:22:01;;;;;;;31.40;18.08;;;12.60;99.90;;;;;;5061179;28;20084;-63
2024/02/01 11:24:29;;;;;;;32.07;17.97;;;12.80;99.90;;;;;;5058900;28;20081;-63
2024/02/01 11:27:13;;;;;;;35.28;18.95;;;12.70;99.90;;;;;;5060207;28;20420;-63
2024/02/01 11:29:47;;;;;;;31.77;18.52;;;12.60;99.90;;;;;;5064250;28;20087;-63
2024/02/01 11:32:18;;;;;;;41.20;18.73;;;12.50;99.90;;;;;;5060676;28;20084;-62
2024/02/01 11:34:50;;;;;;;32.88;18.23;;;12.50;99.90;;;;;;5061014;28;20077;-63
2024/02/01 11:37:18;;;;;;;43.55;18.85;;;12.50;99.90;;;;;;5062907;28;20122;-62
2024/02/01 11:39:46;;;;;;;37.05;19.45;;;12.50;99.90;;;;;;5062009;28;20448;-63
2024/02/01 11:42:13;;;;;;;39.50;19.38;;;12.50;99.90;;;;;;5060384;28;20541;-62
2024/02/01 11:44:40;;;;;;;31.45;17.80;;;12.60;99.90;;;;;;5060724;28;20112;-62
2024/02/01 11:47:11;;;;;;;36.88;18.83;;;12.50;99.90;;;;;;5060504;28;20077;-65
2024/02/01 11:49:37;;;;;;;33.80;18.85;;;12.40;99.90;;;;;;5061916;28;20582;-62
2024/02/01 11:52:31;;;;;;;34.58;18.50;;;12.60;99.90;;;;;;5062123;28;20093;-63
2024/02/01 11:54:58;;;;;;;57.00;33.97;;;12.50;99.90;;;;;;5061087;28;20131;-62
2024/02/01 11:57:25;;;;;;;36.85;18.35;;;12.50;99.90;;;;;;5060492;28;20104;-62
2024/02/01 11:59:55;;;;;;;35.90;19.52;;;12.40;99.90;;;;;;5063708;28;20065;-64
2024/02/01 12:02:24;;;;;;;41.95;20.05;;;12.40;99.90;;;;;;5062053;28;20077;-62
2024/02/01 12:04:52;;;;;;;37.65;19.98;;;12.30;99.90;;;;;;5060975;28;20120;-61
2024/02/01 12:07:20;;;;;;;44.97;19.92;;;12.20;99.90;;;;;;5061273;28;20095;-62
2024/02/01 12:09:48;;;;;;;40.38;19.13;;;12.10;99.90;;;;;;5059980;28;20077;-62
2024/02/01 12:12:18;;;;;;;35.65;20.27;;;12.30;99.90;;;;;;5061601;28;20069;-61
2024/02/01 12:14:45;;;;;;;44.75;23.23;;;12.20;99.90;;;;;;5059677;28;20425;-61
2024/02/01 12:17:24;;;;;;;52.10;26.08;;;12.20;99.90;;;;;;5058196;28;20143;-61
2024/02/01 12:19:51;;;;;;;48.08;25.23;;;12.20;99.90;;;;;;5061342;28;20164;-62
2024/02/01 12:22:21;;;;;;;44.38;24.60;;;12.10;99.90;;;;;;5060352;28;20133;-65
2024/02/01 12:24:49;;;;;;;45.80;26.50;;;12.10;99.90;;;;;;5057177;28;20119;-62
2024/02/01 12:27:17;;;;;;;68.68;38.63;;;12.10;99.90;;;;;;5058577;28;20501;-62
2024/02/01 12:29:45;;;;;;;42.90;25.75;;;12.10;99.90;;;;;;5059903;28;20578;-64
2024/02/01 12:32:12;;;;;;;57.55;29.48;;;12.20;99.90;;;;;;5062077;28;20089;-62
2024/02/01 12:34:40;;;;;;;54.10;27.63;;;12.10;99.90;;;;;;5057553;28;20600;-63
2024/02/01 12:37:14;;;;;;;54.38;29.52;;;12.20;99.90;;;;;;5059772;28;20077;-63
2024/02/01 12:39:42;;;;;;;56.03;31.92;;;12.20;99.90;;;;;;5057364;28;20081;-62
2024/02/01 12:42:14;;;;;;;57.50;34.53;;;12.10;99.90;;;;;;5060117;28;20196;-65
2024/02/01 12:44:41;;;;;;;59.47;35.22;;;12.20;99.90;;;;;;5056930;28;20536;-62
2024/02/01 12:47:08;;;;;;;63.80;36.22;;;12.10;99.90;;;;;;5058420;28;20081;-63
2024/02/01 12:49:36;;;;;;;63.40;32.60;;;12.00;99.90;;;;;;5060287;28;20089;-63
2024/02/01 12:52:06;;;;;;;67.80;37.08;;;12.00;99.90;;;;;;5058023;28;20203;-64
2024/02/01 12:54:39;;;;;;;66.25;40.30;;;12.00;99.90;;;;;;5060719;28;20069;-62
2024/02/01 12:57:08;;;;;;;68.85;41.05;;;12.00;99.90;;;;;;5061546;28;20081;-63
2024/02/01 12:59:36;;;;;;;75.30;44.40;;;12.00;99.90;;;;;;5063225;28;20085;-62
2024/02/01 13:02:04;;;;;;;68.60;43.75;;;12.10;99.90;;;;;;5062925;28;20164;-61
2024/02/01 13:04:31;;;;;;;75.75;48.15;;;12.10;99.90;;;;;;5060883;28;20084;-63
2024/02/01 13:06:58;;;;;;;82.70;57.42;;;12.20;99.90;;;;;;5063408;28;20100;-62
2024/02/01 13:09:33;;;;;;;86.45;62.78;;;12.20;99.90;;;;;;5065589;28;20198;-64
2024/02/01 13:12:00;;;;;;;90.78;64.28;;;12.30;99.90;;;;;;5066378;28;20076;-63
2024/02/01 13:14:30;;;;;;;91.95;63.70;;;12.30;99.90;;;;;;5066488;28;20080;-63
2024/02/01 13:16:57;;;;;;;78.97;60.38;;;12.30;99.90;;;;;;5062617;28;20455;-64
2024/02/01 13:19:25;;;;;;;87.15;60.78;;;12.20;99.90;;;;;;5063111;28;20071;-62
2024/02/01 13:21:53;;;;;;;88.60;61.53;;;12.20;99.90;;;;;;5064517;28;20103;-63
2024/02/01 13:24:22;;;;;;;85.38;65.65;;;12.20;99.90;;;;;;5063902;28;20135;-62
2024/02/01 13:26:51;;;;;;;98.78;79.05;;;12.20;99.90;;;;;;5065857;28;20135;-62
2024/02/01 13:29:19;;;;;;;110.65;87.63;;;12.20;99.90;;;;;;5061810;28;20556;-62